Time;durP1;ratioP1;P1;durP2;ratioP2;P2;SDS_P1;SDS_P2;PMS_P1;PMS_P2;Temp;Humidity;BMP_temperature;BMP_pressure;BME280_temperature;BME280_humidity;BME280_pressure;Samples;Min_cycle;Max_cycle;Signal;HPM_P1;HPM_P2
2022/04/08 00:00:01;;;;;;;3.90;2.35;;;;;;;8.84;73.54;94999.75;5113446;28;20080;-64
2022/04/08 00:02:26;;;;;;;4.97;2.78;;;;;;;8.90;73.31;95000.31;5113506;28;20027;-64
2022/04/08 00:04:52;;;;;;;9.95;2.97;;;;;;;8.96;73.19;95008.63;5113435;28;20020;-64
2022/04/08 00:07:18;;;;;;;3.83;2.60;;;;;;;8.90;73.41;94998.53;5113339;28;20020;-64
2022/04/08 00:09:43;;;;;;;4.63;2.63;;;;;;;8.83;73.42;95012.84;5113488;28;20022;-64
2022/04/08 00:12:09;;;;;;;5.28;2.97;;;;;;;8.83;72.95;95010.25;5113317;28;20369;-64
2022/04/08 00:14:35;;;;;;;7.97;2.83;;;;;;;8.80;72.94;95020.84;5113378;28;20094;-64
2022/04/08 00:17:02;;;;;;;4.97;3.03;;;;;;;8.78;73.03;95023.53;5113302;28;20026;-64
2022/04/08 00:19:28;;;;;;;5.65;2.97;;;;;;;8.79;73.68;95025.22;5113367;28;20020;-64
2022/04/08 00:21:53;;;;;;;2.80;2.50;;;;;;;8.75;73.72;95028.91;5113257;28;20039;-64
2022/04/08 00:24:19;;;;;;;5.35;2.72;;;;;;;8.80;74.20;95031.28;5113236;28;20023;-64
2022/04/08 00:26:48;;;;;;;3.10;2.33;;;;;;;8.78;73.69;95023.53;5113212;28;20016;-64
2022/04/08 00:29:14;;;;;;;3.63;2.42;;;;;;;8.85;73.62;95024.88;5113252;28;20024;-64
2022/04/08 00:31:40;;;;;;;5.25;2.00;;;;;;;8.94;72.82;95027.91;5113259;28;20023;-64
2022/04/08 00:34:05;;;;;;;5.65;1.90;;;;;;;9.10;72.27;95039.16;5113161;28;20011;-64
2022/04/08 00:36:31;;;;;;;6.72;2.47;;;;;;;9.24;71.98;95042.75;5113072;28;20024;-64
2022/04/08 00:38:57;;;;;;;4.82;2.15;;;;;;;9.32;71.48;95048.38;5113165;28;20107;-64
2022/04/08 00:41:23;;;;;;;5.72;2.88;;;;;;;9.43;72.01;95047.78;5113223;28;20027;-64
2022/04/08 00:43:49;;;;;;;5.55;2.45;;;;;;;9.47;72.23;95044.06;5113039;28;20102;-64
2022/04/08 00:46:14;;;;;;;7.15;2.40;;;;;;;9.47;72.73;95041.44;5113194;28;20027;-65
2022/04/08 00:48:40;;;;;;;4.65;3.13;;;;;;;9.42;71.92;95055.69;5113580;28;20020;-64
2022/04/08 00:51:07;;;;;;;6.03;3.20;;;;;;;9.44;71.74;95048.59;5116926;28;20065;-65
2022/04/08 00:53:35;;;;;;;3.75;2.75;;;;;;;9.41;72.48;95062.69;5116777;28;20473;-64
2022/04/08 00:56:02;;;;;;;3.95;2.38;;;;;;;9.36;72.94;95062.09;5116838;28;20473;-65
2022/04/08 00:58:28;;;;;;;5.38;2.58;;;;;;;9.23;74.41;95056.72;5116919;28;20106;-65
2022/04/08 01:00:54;;;;;;;5.43;2.50;;;;;;;9.19;74.72;95052.63;5116797;27;20035;-65
2022/04/08 01:03:20;;;;;;;4.47;2.60;;;;;;;9.20;75.01;95059.50;5116570;28;20031;-65
2022/04/08 01:05:45;;;;;;;5.93;2.92;;;;;;;9.15;75.21;95064.16;5116568;28;20032;-65
2022/04/08 01:08:12;;;;;;;4.70;2.97;;;;;;;9.13;75.95;95068.59;5116720;28;20469;-64
2022/04/08 01:10:41;;;;;;;5.15;3.20;;;;;;;9.20;76.12;95062.97;5116620;28;20566;-64
2022/04/08 01:13:06;;;;;;;4.07;2.95;;;;;;;9.21;76.59;95061.19;5116671;28;20024;-65
2022/04/08 01:15:32;;;;;;;6.40;3.20;;;;;;;9.25;76.45;95062.72;5116401;28;20103;-65
2022/04/08 01:17:57;;;;;;;26.92;14.88;;;;;;;9.23;76.70;95056.72;5116611;28;20027;-64
2022/04/08 01:20:23;;;;;;;15.00;6.00;;;;;;;9.18;76.68;95058.78;5116358;28;20477;-64
2022/04/08 01:22:49;;;;;;;4.63;3.50;;;;;;;9.12;77.21;95059.94;5116345;28;20414;-64
2022/04/08 01:25:14;;;;;;;6.82;2.97;;;;;;;9.08;77.26;95064.50;5116164;28;20102;-65
2022/04/08 01:27:41;;;;;;;4.43;2.67;;;;;;;9.12;77.00;95062.53;5116152;28;20019;-65
2022/04/08 01:30:09;;;;;;;7.20;2.85;;;;;;;9.20;76.55;95069.94;5116294;28;20069;-65
2022/04/08 01:32:35;;;;;;;4.65;3.63;;;;;;;9.20;76.70;95075.16;5116190;28;20016;-64
2022/04/08 01:35:01;;;;;;;6.68;3.17;;;;;;;9.16;76.21;95081.47;5116308;28;20019;-64
2022/04/08 01:37:27;;;;;;;5.72;3.40;;;;;;;9.19;75.68;95087.38;5116083;28;20477;-65
2022/04/08 01:39:53;;;;;;;5.53;3.55;;;;;;;9.25;75.50;95088.81;5115983;28;20034;-64
2022/04/08 01:42:22;;;;;;;5.10;3.22;;;;;;;9.22;75.65;95081.16;5114649;28;20088;-64
2022/04/08 01:44:49;;;;;;;11.05;4.35;;;;;;;9.25;75.61;95075.75;5115880;28;20227;-65
2022/04/08 01:47:14;;;;;;;8.80;3.85;;;;;;;9.23;75.55;95086.28;5115895;28;20020;-64
2022/04/08 01:49:40;;;;;;;6.22;3.30;;;;;;;9.27;75.64;95073.06;5115746;28;20019;-64
2022/04/08 01:52:06;;;;;;;5.25;2.65;;;;;;;9.20;75.46;95082.97;5115797;28;20051;-64
2022/04/08 01:54:32;;;;;;;5.45;3.67;;;;;;;9.15;75.78;95083.25;5115706;28;20110;-65
2022/04/08 01:56:57;;;;;;;9.63;3.20;;;;;;;9.21;75.83;95074.22;5115804;28;20047;-64
2022/04/08 01:59:23;;;;;;;5.85;3.13;;;;;;;9.12;75.65;95079.97;5115710;28;20016;-65
2022/04/08 02:01:48;;;;;;;9.63;3.63;;;;;;;9.06;75.82;95066.34;5114665;28;20016;-65
2022/04/08 02:04:14;;;;;;;6.45;3.92;;;;;;;9.06;75.97;95078.56;5115443;28;20023;-62
2022/04/08 02:06:42;;;;;;;5.15;3.47;;;;;;;9.10;76.05;95067.03;5115414;28;20016;-65
2022/04/08 02:09:09;;;;;;;4.57;2.75;;;;;;;9.15;76.27;95080.63;5115422;28;20038;-64
2022/04/08 02:11:36;;;;;;;6.47;3.72;;;;;;;9.11;76.22;95092.16;5115416;28;20043;-64
2022/04/08 02:14:03;;;;;;;4.75;2.83;;;;;;;9.13;76.22;95092.94;5115381;28;20469;-64
2022/04/08 02:16:29;;;;;;;5.45;3.30;;;;;;;9.20;75.96;95078.63;5115190;28;20433;-64
2022/04/08 02:18:55;;;;;;;7.15;3.45;;;;;;;9.21;75.58;95098.56;5115221;28;20024;-64
2022/04/08 02:21:21;;;;;;;5.95;2.90;;;;;;;9.21;75.61;95089.88;5114994;28;20051;-64
2022/04/08 02:23:47;;;;;;;3.70;2.95;;;;;;;9.25;75.44;95082.72;5115114;28;20030;-64
2022/04/08 02:26:14;;;;;;;4.30;2.30;;;;;;;9.30;75.72;95096.38;5115062;28;20028;-64
2022/04/08 02:28:40;;;;;;;7.38;3.33;;;;;;;9.34;75.28;95087.44;5114984;28;20030;-65
2022/04/08 02:31:06;;;;;;;4.28;2.67;;;;;;;9.33;75.64;95078.75;5115059;28;20023;-64
2022/04/08 02:33:32;;;;;;;3.97;2.80;;;;;;;9.31;75.41;95091.06;5114939;27;20400;-64
2022/04/08 02:35:57;;;;;;;5.25;3.50;;;;;;;9.31;75.44;95090.22;5114962;28;20022;-65
2022/04/08 02:38:23;;;;;;;7.68;3.40;;;;;;;9.33;75.67;95083.16;5114821;28;20024;-64
2022/04/08 02:40:48;;;;;;;3.53;2.75;;;;;;;9.30;75.61;95088.56;5114707;28;20027;-64
2022/04/08 02:43:14;;;;;;;7.35;3.40;;;;;;;9.30;75.59;95086.75;5114566;28;20020;-65
2022/04/08 02:45:39;;;;;;;7.13;3.10;;;;;;;9.33;75.53;95091.00;5114718;28;20099;-64
2022/04/08 02:48:05;;;;;;;6.47;2.63;;;;;;;9.28;75.16;95101.69;5114685;28;20028;-64
2022/04/08 02:50:30;;;;;;;6.05;2.95;;;;;;;9.25;75.52;95091.41;5114571;28;20503;-64
2022/04/08 02:52:56;;;;;;;3.03;2.72;;;;;;;9.25;75.61;95093.16;5114525;28;20069;-64
2022/04/08 02:55:21;;;;;;;5.47;2.95;;;;;;;9.21;75.90;95100.31;5114478;28;20477;-64
2022/04/08 02:57:48;;;;;;;4.38;2.83;;;;;;;9.21;75.66;95090.72;5114452;28;20081;-64
2022/04/08 03:00:19;;;;;;;3.65;2.88;;;;;;;9.14;75.63;95092.00;5114507;28;20088;-65
2022/04/08 03:02:45;;;;;;;4.85;3.35;;;;;;;9.22;75.17;95107.22;5114385;28;20030;-65
2022/04/08 03:05:11;;;;;;;5.63;3.50;;;;;;;9.27;75.05;95110.41;5114366;28;20031;-64
2022/04/08 03:07:37;;;;;;;5.50;2.83;;;;;;;9.27;75.09;95102.59;5114389;28;20016;-64
2022/04/08 03:10:04;;;;;;;4.03;2.97;;;;;;;9.30;75.10;95114.66;5114319;28;20371;-65
2022/04/08 03:12:31;;;;;;;4.63;2.45;;;;;;;9.27;75.07;95120.03;5114136;28;20424;-64
2022/04/08 03:14:56;;;;;;;3.47;3.00;;;;;;;9.22;75.30;95112.44;5114238;28;20152;-64
2022/04/08 03:17:22;;;;;;;4.47;3.08;;;;;;;9.18;75.44;95117.00;5114061;28;20095;-64
2022/04/08 03:19:48;;;;;;;4.15;2.95;;;;;;;9.21;75.54;95118.56;5114119;28;20419;-64
2022/04/08 03:22:13;;;;;;;4.90;3.15;;;;;;;9.19;75.41;95123.06;5113982;28;20048;-65
2022/04/08 03:24:39;;;;;;;4.20;3.03;;;;;;;9.15;75.17;95131.97;5113991;28;20083;-65
2022/04/08 03:27:04;;;;;;;3.50;3.20;;;;;;;9.17;75.28;95130.97;5114044;28;20087;-64
2022/04/08 03:29:30;;;;;;;6.82;3.22;;;;;;;9.18;75.50;95137.03;5113885;28;20385;-64
2022/04/08 03:31:55;;;;;;;4.70;3.05;;;;;;;9.17;75.50;95141.41;5113917;28;20492;-64
2022/04/08 03:34:21;;;;;;;4.97;2.80;;;;;;;9.16;75.75;95137.13;5113945;28;20028;-64
2022/04/08 03:36:47;;;;;;;4.75;3.20;;;;;;;9.19;75.47;95143.94;5113931;28;20015;-64
2022/04/08 03:39:13;;;;;;;4.72;2.65;;;;;;;9.19;75.21;95156.97;5113921;28;20477;-64
2022/04/08 03:41:40;;;;;;;4.22;2.97;;;;;;;9.15;75.59;95148.47;5113716;28;20026;-64
2022/04/08 03:44:06;;;;;;;4.22;2.85;;;;;;;9.17;75.54;95154.44;5113698;28;20055;-65
2022/04/08 03:46:32;;;;;;;7.63;3.42;;;;;;;9.22;75.31;95151.59;5113811;28;20456;-64
2022/04/08 03:48:57;;;;;;;4.07;2.60;;;;;;;9.18;75.44;95150.91;5113770;28;20512;-64
2022/04/08 03:51:23;;;;;;;5.18;2.65;;;;;;;9.12;75.29;95156.44;5113609;28;20431;-64
2022/04/08 03:53:48;;;;;;;3.65;2.92;;;;;;;9.08;75.47;95162.75;5113733;28;20465;-64
2022/04/08 03:56:14;;;;;;;3.65;2.63;;;;;;;9.04;75.26;95162.09;5113601;28;20019;-64
2022/04/08 03:58:39;;;;;;;6.18;3.08;;;;;;;9.05;74.86;95168.16;5113556;28;20099;-64
2022/04/08 04:01:05;;;;;;;4.38;3.40;;;;;;;9.02;74.87;95169.16;5113568;28;20512;-64
2022/04/08 04:03:31;;;;;;;3.83;2.88;;;;;;;8.99;74.48;95169.31;5113352;28;20030;-65
2022/04/08 04:05:56;;;;;;;6.90;3.72;;;;;;;8.98;74.74;95178.91;5113592;28;20095;-64
2022/04/08 04:08:22;;;;;;;6.57;3.83;;;;;;;8.98;74.08;95178.91;5113392;28;20370;-64
2022/04/08 04:10:48;;;;;;;8.82;3.65;;;;;;;8.93;74.16;95190.50;5113547;28;20039;-64
2022/04/08 04:13:14;;;;;;;9.45;3.83;;;;;;;8.92;74.02;95188.84;5113495;28;20030;-64
2022/04/08 04:15:40;;;;;;;3.40;2.58;;;;;;;8.88;73.54;95198.56;5113427;28;20081;-64
2022/04/08 04:18:06;;;;;;;5.22;3.22;;;;;;;8.83;73.38;95195.38;5113465;28;20041;-64
2022/04/08 04:20:33;;;;;;;3.78;2.70;;;;;;;8.76;73.54;95197.44;5113098;28;20035;-64
2022/04/08 04:22:58;;;;;;;5.03;3.08;;;;;;;8.77;73.73;95200.91;5113358;28;20025;-64
2022/04/08 04:25:24;;;;;;;5.72;3.22;;;;;;;8.76;73.28;95187.03;5116675;28;20034;-64
2022/04/08 04:27:50;;;;;;;7.45;3.03;;;;;;;8.88;73.00;95200.34;5117398;28;20069;-64
2022/04/08 04:30:15;;;;;;;3.65;3.00;;;;;;;8.90;72.94;95206.31;5117470;28;20044;-64
2022/04/08 04:32:41;;;;;;;5.00;3.13;;;;;;;9.06;72.90;95219.41;5117317;28;20035;-64
2022/04/08 04:35:07;;;;;;;3.25;2.83;;;;;;;9.39;72.58;95210.66;5117326;28;20024;-64
2022/04/08 04:37:37;;;;;;;9.40;2.60;;;;;;;9.78;70.26;95218.19;5117291;28;20021;-64
2022/04/08 04:40:04;;;;;;;3.92;2.30;;;;;;;10.26;68.53;95215.44;5117109;28;20019;-64
2022/04/08 04:42:29;;;;;;;5.55;2.40;;;;;;;10.71;66.58;95227.72;5117019;28;20026;-64
2022/04/08 04:44:56;;;;;;;4.35;2.10;;;;;;;11.21;64.86;95230.84;5116935;28;20028;-64
2022/04/08 04:47:23;;;;;;;4.88;2.53;;;;;;;11.78;62.62;95233.44;5117237;28;20106;-64
2022/04/08 04:49:49;;;;;;;3.10;2.15;;;;;;;12.34;61.17;95237.75;5117068;27;20020;-64
2022/04/08 04:52:15;;;;;;;6.15;2.03;;;;;;;12.90;58.40;95235.84;5116941;28;20047;-64
2022/04/08 04:54:41;;;;;;;4.15;2.22;;;;;;;13.28;57.31;95239.41;5116988;28;20068;-64
2022/04/08 04:57:07;;;;;;;4.70;2.35;;;;;;;13.81;56.83;95255.94;5116989;28;20478;-64
2022/04/08 04:59:33;;;;;;;5.43;1.92;;;;;;;14.41;54.29;95258.59;5116801;28;20028;-64
2022/04/08 05:01:59;;;;;;;4.18;1.90;;;;;;;14.97;52.80;95246.59;5116726;28;20028;-64
2022/04/08 05:04:25;;;;;;;5.70;2.25;;;;;;;15.48;51.94;95262.94;5116636;28;20087;-64
2022/04/08 05:06:50;;;;;;;5.38;1.90;;;;;;;16.07;50.69;95265.38;5116782;28;20016;-64
2022/04/08 05:09:16;;;;;;;7.32;3.00;;;;;;;16.61;49.98;95264.59;5116704;27;20027;-64
2022/04/08 05:11:42;;;;;;;4.13;1.65;;;;;;;17.20;48.52;95272.09;5116584;28;20027;-64
2022/04/08 05:14:08;;;;;;;7.97;2.20;;;;;;;17.64;47.65;95274.56;5116688;28;20112;-64
2022/04/08 05:16:33;;;;;;;4.47;1.75;;;;;;;18.09;47.52;95273.25;5116433;28;20054;-64
2022/04/08 05:18:59;;;;;;;5.75;1.90;;;;;;;18.50;44.83;95281.16;5116390;28;20023;-64
2022/04/08 05:21:24;;;;;;;5.75;1.80;;;;;;;18.91;43.50;95282.84;5116208;28;20127;-63
2022/04/08 05:23:50;;;;;;;2.22;1.60;;;;;;;19.40;43.04;95290.72;5116355;28;20020;-64
2022/04/08 05:26:16;;;;;;;2.90;1.48;;;;;;;19.97;43.22;95307.53;5116288;28;20606;-64
2022/04/08 05:28:42;;;;;;;1.73;1.60;;;;;;;20.10;42.02;95309.88;5116233;28;20468;-64
2022/04/08 05:31:07;;;;;;;1.83;1.60;;;;;;;20.36;41.65;95295.88;5116208;28;20112;-64
2022/04/08 05:33:33;;;;;;;1.50;1.40;;;;;;;20.69;39.55;95321.94;5116161;28;20377;-64
2022/04/08 05:35:59;;;;;;;4.50;1.30;;;;;;;21.10;37.36;95318.00;5114798;28;20392;-64
2022/04/08 05:38:24;;;;;;;3.83;1.23;;;;;;;21.55;37.48;95305.53;5116150;28;20024;-64
2022/04/08 05:40:50;;;;;;;1.90;1.52;;;;;;;21.88;35.22;95318.19;5116049;28;20476;-64
2022/04/08 05:43:16;;;;;;;2.30;1.40;;;;;;;22.04;34.18;95318.28;5115938;28;20022;-64
2022/04/08 05:45:42;;;;;;;3.63;1.48;;;;;;;22.32;34.70;95336.69;5115927;28;20031;-64
2022/04/08 05:48:08;;;;;;;4.43;1.75;;;;;;;22.75;34.38;95342.97;5115984;28;20032;-64
2022/04/08 05:50:34;;;;;;;3.45;1.67;;;;;;;23.15;33.60;95356.50;5115950;28;20367;-64
2022/04/08 05:53:04;;;;;;;6.97;1.80;;;;;;;22.90;34.88;95343.97;5115739;28;20016;-64
2022/04/08 05:55:30;;;;;;;4.55;1.38;;;;;;;22.67;34.11;95339.28;5115736;28;20492;-64
2022/04/08 05:57:56;;;;;;;2.70;1.50;;;;;;;22.82;34.11;95354.66;5115737;28;20016;-63
2022/04/08 06:00:23;;;;;;;3.17;1.48;;;;;;;23.05;33.50;95354.00;5115620;28;20032;-63
2022/04/08 06:02:49;;;;;;;8.38;1.88;;;;;;;22.95;33.84;95351.50;5115529;28;20016;-64
2022/04/08 06:05:21;;;;;;;1.40;1.30;;;;;;;23.30;33.77;95356.69;5115454;28;20039;-64
2022/04/08 06:07:54;;;;;;;3.25;1.60;;;;;;;22.72;33.32;95357.44;5115489;28;20023;-64
2022/04/08 06:10:22;;;;;;;2.53;1.40;;;;;;;22.54;35.16;95370.84;5115430;28;20108;-64
2022/04/08 06:12:49;;;;;;;3.78;1.30;;;;;;;22.36;34.98;95368.31;5115445;28;20023;-64
2022/04/08 06:15:15;;;;;;;2.08;1.20;;;;;;;22.42;34.71;95373.81;5115346;28;20385;-63
2022/04/08 06:17:41;;;;;;;2.33;1.33;;;;;;;22.30;34.95;95369.78;5115323;28;20023;-64
2022/04/08 06:20:11;;;;;;;2.75;1.23;;;;;;;22.27;34.95;95370.13;5115267;28;20028;-64
2022/04/08 06:22:40;;;;;;;1.95;1.30;;;;;;;22.72;33.77;95384.09;5115121;28;20032;-64
2022/04/08 06:25:10;;;;;;;2.65;1.35;;;;;;;23.02;31.56;95384.50;5115035;28;20550;-64
2022/04/08 06:27:36;;;;;;;1.70;1.30;;;;;;;23.02;33.05;95397.00;5115084;28;20051;-64
2022/04/08 06:30:03;;;;;;;4.97;1.27;;;;;;;23.39;33.31;95397.56;5115237;28;20109;-64
2022/04/08 06:32:29;;;;;;;2.15;1.27;;;;;;;23.64;31.52;95402.88;5115007;28;20487;-64
2022/04/08 06:34:55;;;;;;;3.63;1.20;;;;;;;23.80;31.25;95397.50;5115043;28;20110;-64
2022/04/08 06:37:20;;;;;;;1.33;1.23;;;;;;;23.95;30.87;95410.16;5114927;28;20465;-64
2022/04/08 06:39:47;;;;;;;1.58;1.23;;;;;;;23.23;30.95;95408.00;5114879;27;20024;-64
2022/04/08 06:42:14;;;;;;;4.63;1.23;;;;;;;23.18;31.13;95412.19;5114808;28;20096;-64
2022/04/08 06:44:39;;;;;;;1.52;1.20;;;;;;;22.72;32.82;95408.06;5114744;28;20433;-64
2022/04/08 06:47:05;;;;;;;2.63;1.27;;;;;;;22.46;32.91;95408.97;5114467;28;20473;-64
2022/04/08 06:49:31;;;;;;;5.95;1.33;;;;;;;22.37;33.21;95415.25;5114628;28;20052;-64
2022/04/08 06:51:58;;;;;;;5.95;1.27;;;;;;;22.62;32.02;95408.22;5114555;28;20035;-64
2022/04/08 06:54:25;;;;;;;3.47;1.40;;;;;;;22.51;31.95;95414.63;5114509;28;20039;-64
2022/04/08 06:56:51;;;;;;;3.17;1.58;;;;;;;22.19;33.35;95410.84;5114506;28;20019;-64
2022/04/08 06:59:17;;;;;;;1.52;1.30;;;;;;;22.37;31.66;95417.91;5114520;28;20069;-65
2022/04/08 07:01:42;;;;;;;1.63;1.40;;;;;;;22.68;31.33;95415.56;5114311;28;20027;-64
2022/04/08 07:04:08;;;;;;;1.10;1.00;;;;;;;23.09;30.27;95422.81;5114249;28;20028;-65
2022/04/08 07:06:34;;;;;;;3.63;1.55;;;;;;;23.30;30.07;95429.50;5114388;28;20011;-65
2022/04/08 07:09:00;;;;;;;2.78;1.50;;;;;;;23.43;28.90;95437.06;5114376;28;20026;-64
2022/04/08 07:11:25;;;;;;;1.88;1.30;;;;;;;23.57;30.41;95443.56;5114238;28;20019;-65
2022/04/08 07:13:51;;;;;;;1.98;1.50;;;;;;;23.99;30.00;95446.22;5114137;28;20034;-65
2022/04/08 07:16:17;;;;;;;1.30;1.20;;;;;;;23.92;28.19;95450.53;5114206;28;20024;-65
2022/04/08 07:18:42;;;;;;;9.65;1.38;;;;;;;23.50;29.07;95453.22;5114074;27;20076;-64
2022/04/08 07:21:09;;;;;;;3.72;1.45;;;;;;;23.40;29.71;95452.56;5113885;28;20115;-65
2022/04/08 07:23:36;;;;;;;1.20;1.10;;;;;;;23.18;30.27;95457.50;5114102;28;20130;-65
2022/04/08 07:26:03;;;;;;;1.75;1.38;;;;;;;23.25;28.92;95455.84;5113995;28;20031;-65
2022/04/08 07:28:29;;;;;;;4.35;1.30;;;;;;;23.43;27.96;95466.41;5113907;28;20028;-65
2022/04/08 07:30:54;;;;;;;3.35;1.55;;;;;;;23.90;29.27;95472.06;5113913;28;20381;-65
2022/04/08 07:33:20;;;;;;;2.95;1.63;;;;;;;23.85;29.03;95469.94;5113799;28;20370;-65
2022/04/08 07:35:46;;;;;;;3.22;1.52;;;;;;;24.03;28.75;95476.06;5113879;28;20030;-65
2022/04/08 07:38:12;;;;;;;2.22;1.33;;;;;;;24.07;27.08;95475.56;5113813;28;20069;-65
2022/04/08 07:40:37;;;;;;;3.53;1.17;;;;;;;23.90;28.17;95474.75;5113789;28;20035;-65
2022/04/08 07:43:03;;;;;;;2.60;1.23;;;;;;;23.70;27.90;95480.44;5113684;28;20422;-65
2022/04/08 07:45:29;;;;;;;1.73;1.10;;;;;;;23.46;28.09;95481.25;5113625;28;20136;-65
2022/04/08 07:47:57;;;;;;;1.67;1.05;;;;;;;23.79;26.26;95473.25;5113782;28;20042;-65
2022/04/08 07:50:23;;;;;;;2.08;1.20;;;;;;;23.85;28.26;95471.75;5113577;28;20499;-65
2022/04/08 07:52:48;;;;;;;2.58;1.50;;;;;;;23.68;27.19;95461.09;5113623;28;20015;-65
2022/04/08 07:55:14;;;;;;;4.85;1.30;;;;;;;23.34;26.21;95484.22;5113625;28;20023;-65
2022/04/08 07:57:44;;;;;;;1.40;1.30;;;;;;;23.08;27.79;95481.63;5113553;28;20373;-65
2022/04/08 08:00:11;;;;;;;1.10;1.00;;;;;;;23.18;28.01;95474.34;5112996;28;20031;-65
2022/04/08 08:02:37;;;;;;;2.80;1.42;;;;;;;23.33;26.93;95476.38;5113461;28;20034;-65
2022/04/08 08:05:03;;;;;;;3.42;1.50;;;;;;;23.37;27.90;95479.56;5113387;28;20020;-65
2022/04/08 08:07:29;;;;;;;2.53;1.67;;;;;;;23.63;27.65;95484.75;5113454;28;20393;-65
2022/04/08 08:09:55;;;;;;;2.33;1.27;;;;;;;23.71;27.50;95476.75;5113446;28;20128;-65
2022/04/08 08:12:20;;;;;;;2.45;1.10;;;;;;;24.07;25.72;95486.25;5113401;28;20077;-65
2022/04/08 08:14:46;;;;;;;2.47;1.20;;;;;;;24.33;25.14;95487.06;5113392;28;20431;-65
2022/04/08 08:17:11;;;;;;;1.92;1.23;;;;;;;24.43;25.72;95487.72;5113428;28;20439;-64
2022/04/08 08:19:37;;;;;;;2.78;1.13;;;;;;;24.52;24.33;95495.69;5113409;28;20028;-64
2022/04/08 08:22:03;;;;;;;3.13;1.20;;;;;;;24.18;24.76;95498.47;5113158;28;20386;-64
2022/04/08 08:24:29;;;;;;;1.25;0.90;;;;;;;24.05;24.00;95500.78;5113239;28;20024;-65
2022/04/08 08:26:55;;;;;;;1.73;1.00;;;;;;;23.42;24.26;95510.09;5113503;28;20068;-65
2022/04/08 08:29:20;;;;;;;1.55;1.30;;;;;;;23.26;25.70;95508.19;5113259;28;20027;-65
2022/04/08 08:31:46;;;;;;;1.42;1.10;;;;;;;23.39;25.27;95518.41;5113277;28;20023;-65
2022/04/08 08:34:12;;;;;;;1.58;1.30;;;;;;;23.18;25.98;95517.00;5113345;28;20042;-65
2022/04/08 08:36:37;;;;;;;2.25;1.33;;;;;;;23.41;25.82;95523.59;5113318;28;20030;-65
2022/04/08 08:39:03;;;;;;;1.60;1.23;;;;;;;23.51;25.12;95516.25;5113104;28;20015;-64
2022/04/08 08:41:31;;;;;;;1.77;1.30;;;;;;;23.56;24.64;95513.94;5113046;28;20020;-65
2022/04/08 08:43:57;;;;;;;2.47;1.40;;;;;;;23.52;23.94;95515.28;5113136;28;20020;-65
2022/04/08 08:46:23;;;;;;;2.53;1.92;;;;;;;23.42;25.42;95517.28;5113217;28;20056;-64
2022/04/08 08:48:50;;;;;;;1.90;1.40;;;;;;;23.47;24.86;95520.25;5113159;28;20027;-65
2022/04/08 08:51:18;;;;;;;1.20;1.10;;;;;;;23.38;23.83;95523.94;5113197;28;20035;-65
2022/04/08 08:53:44;;;;;;;2.25;0.90;;;;;;;23.43;24.45;95517.09;5113096;28;20031;-65
2022/04/08 08:56:10;;;;;;;2.17;1.00;;;;;;;23.37;24.10;95511.56;5113086;28;20035;-64
2022/04/08 08:58:38;;;;;;;2.88;1.08;;;;;;;23.41;25.34;95503.09;5113043;28;20020;-64
2022/04/08 09:01:09;;;;;;;2.28;0.90;;;;;;;23.42;24.42;95509.25;5113161;28;20028;-65
2022/04/08 09:03:35;;;;;;;1.10;0.80;;;;;;;23.38;24.21;95519.41;5113062;28;20019;-65
2022/04/08 09:06:09;;;;;;;4.05;1.15;;;;;;;23.40;23.73;95520.09;5112875;28;20380;-65
2022/04/08 09:08:38;;;;;;;2.38;1.10;;;;;;;23.13;23.60;95521.16;5112987;28;20061;-65
2022/04/08 09:11:04;;;;;;;1.55;1.17;;;;;;;23.13;26.64;95516.66;5115515;28;20023;-65
2022/04/08 09:13:31;;;;;;;1.23;0.90;;;;;;;23.22;24.59;95518.38;5116500;28;20060;-64
2022/04/08 09:16:01;;;;;;;3.47;1.35;;;;;;;23.05;24.53;95522.81;5116473;28;20027;-65
2022/04/08 09:18:34;;;;;;;3.13;1.40;;;;;;;23.17;25.44;95534.00;5116483;28;20063;-64
2022/04/08 09:21:00;;;;;;;2.95;1.90;;;;;;;23.39;24.77;95550.41;5116227;28;20035;-65
2022/04/08 09:23:28;;;;;;;2.15;1.70;;;;;;;23.57;25.96;95547.63;5116249;28;20367;-65
2022/04/08 09:26:01;;;;;;;2.35;1.00;;;;;;;23.66;24.37;95547.66;5116370;28;20015;-65
2022/04/08 09:28:36;;;;;;;1.65;1.20;;;;;;;23.63;24.51;95539.97;5116394;28;20035;-65
2022/04/08 09:31:03;;;;;;;1.88;1.10;;;;;;;23.61;23.91;95526.81;5116260;28;20028;-65
2022/04/08 09:33:29;;;;;;;3.90;1.13;;;;;;;23.75;24.76;95524.47;5116118;28;20028;-64
2022/04/08 09:35:57;;;;;;;3.25;1.27;;;;;;;23.96;24.61;95522.13;5116057;27;20072;-64
2022/04/08 09:38:30;;;;;;;1.58;0.80;;;;;;;23.78;25.65;95529.47;5116131;28;20023;-65
2022/04/08 09:41:15;;;;;;;3.72;1.50;;;;;;;23.72;23.69;95526.47;5116102;28;20164;-65
2022/04/08 09:43:41;;;;;;;3.53;1.27;;;;;;;23.41;23.73;95537.75;5115790;28;20031;-64
2022/04/08 09:46:21;;;;;;;2.05;1.70;;;;;;;23.36;24.65;95537.41;5115929;28;20423;-65
2022/04/08 09:48:48;;;;;;;2.08;1.88;;;;;;;23.33;25.05;95541.22;5116115;28;20034;-64
2022/04/08 09:51:20;;;;;;;2.78;1.33;;;;;;;23.27;24.40;95531.19;5116015;28;20092;-64
2022/04/08 09:53:53;;;;;;;2.55;2.00;;;;;;;23.38;24.40;95532.75;5115868;28;20042;-64
2022/04/08 09:56:23;;;;;;;3.35;2.25;;;;;;;23.41;25.52;95528.91;5115777;27;20028;-64
2022/04/08 09:59:07;;;;;;;4.85;1.52;;;;;;;23.53;24.92;95527.63;5115727;28;20034;-65
2022/04/08 10:01:35;;;;;;;7.43;4.97;;;;;;;23.66;24.64;95519.13;5115712;28;20028;-65
2022/04/08 10:04:03;;;;;;;1.83;1.35;;;;;;;23.82;23.85;95526.31;5115485;27;20034;-64
2022/04/08 10:06:30;;;;;;;1.88;1.10;;;;;;;23.70;22.61;95520.47;5115532;28;20023;-65
2022/04/08 10:08:57;;;;;;;3.95;1.48;;;;;;;23.47;23.86;95529.13;5115478;28;20028;-65
2022/04/08 10:11:47;;;;;;;0.80;0.75;;;;;;;23.45;23.06;95520.44;5115454;28;20103;-64
2022/04/08 10:14:30;;;;;;;1.27;1.17;;;;;;;23.64;23.84;95518.47;5095012;28;20027;-64
2022/04/08 10:16:57;;;;;;;1.40;1.20;;;;;;;23.64;22.66;95536.31;5115461;28;20073;-64
2022/04/08 10:19:23;;;;;;;2.90;1.23;;;;;;;23.67;24.23;95526.13;5115430;28;20350;-64
2022/04/08 10:21:53;;;;;;;1.10;1.00;;;;;;;23.70;24.38;95525.81;5114245;28;20042;-64
2022/04/08 10:24:24;;;;;;;1.65;1.30;;;;;;;23.91;24.18;95540.50;5115179;28;20023;-64
2022/04/08 10:27:04;;;;;;;2.13;1.20;;;;;;;23.73;23.97;95546.00;5115037;28;20093;-64
2022/04/08 10:29:32;;;;;;;3.50;1.30;;;;;;;23.50;24.42;95540.47;5115248;28;20453;-64
2022/04/08 10:32:02;;;;;;;4.15;1.15;;;;;;;23.32;24.54;95538.69;5115179;28;20024;-64
2022/04/08 10:34:32;;;;;;;2.55;1.40;;;;;;;23.50;24.24;95549.28;5115142;28;20081;-64
2022/04/08 10:37:13;;;;;;;1.98;0.95;;;;;;;23.78;24.99;95551.66;5115055;28;20031;-64
2022/04/08 10:39:42;;;;;;;1.38;1.27;;;;;;;23.94;24.17;95550.00;5114913;28;20039;-64
2022/04/08 10:42:22;;;;;;;3.85;1.90;;;;;;;24.02;25.05;95541.97;5114966;28;20038;-64
2022/04/08 10:44:48;;;;;;;1.48;1.30;;;;;;;24.25;24.00;95532.47;5114713;28;20093;-64
2022/04/08 10:47:20;;;;;;;1.40;1.10;;;;;;;24.36;23.82;95530.28;5114796;28;20482;-64
2022/04/08 10:49:56;;;;;;;3.28;1.23;;;;;;;24.28;25.61;95548.19;5114820;28;20084;-64
2022/04/08 10:52:24;;;;;;;2.20;1.55;;;;;;;24.17;24.28;95546.69;5114708;28;20031;-64
2022/04/08 10:54:51;;;;;;;1.17;0.82;;;;;;;24.18;23.43;95538.53;5114650;28;20030;-64
2022/04/08 10:57:35;;;;;;;2.05;1.45;;;;;;;24.11;22.60;95542.84;5114669;28;20062;-64
2022/04/08 11:00:11;;;;;;;4.60;1.88;;;;;;;24.04;23.55;95550.69;5114447;28;20110;-64
2022/04/08 11:02:39;;;;;;;5.30;1.40;;;;;;;24.01;25.09;95548.34;5114414;28;20377;-64
2022/04/08 11:05:06;;;;;;;1.98;1.10;;;;;;;24.15;24.28;95540.69;5114407;28;20019;-65
2022/04/08 11:07:32;;;;;;;2.03;1.33;;;;;;;23.98;23.82;95549.50;5114382;28;20020;-64
2022/04/08 11:09:59;;;;;;;2.10;1.30;;;;;;;23.79;24.13;95539.16;5114382;28;20043;-64
2022/04/08 11:12:25;;;;;;;2.28;1.20;;;;;;;23.60;24.42;95543.81;5114306;28;20098;-64
2022/04/08 11:14:58;;;;;;;1.70;1.60;;;;;;;23.16;24.58;95560.84;5114466;28;20510;-64
2022/04/08 11:17:36;;;;;;;2.35;1.50;;;;;;;23.19;25.57;95555.19;5114097;27;20072;-64
2022/04/08 11:20:06;;;;;;;1.55;1.30;;;;;;;23.28;24.12;95554.22;5114236;28;20024;-64
2022/04/08 11:22:44;;;;;;;2.08;1.23;;;;;;;23.42;24.47;95558.09;5113926;28;20052;-64
2022/04/08 11:25:19;;;;;;;2.92;1.27;;;;;;;23.16;24.18;95547.50;5113903;28;20028;-64
2022/04/08 11:27:51;;;;;;;4.25;1.20;;;;;;;23.21;23.92;95545.19;5114092;28;20059;-64
2022/04/08 11:30:18;;;;;;;1.42;1.33;;;;;;;23.43;24.48;95545.59;5114088;27;20055;-64
2022/04/08 11:32:45;;;;;;;1.45;1.30;;;;;;;23.51;28.13;95558.13;5113947;28;20024;-64
2022/04/08 11:35:14;;;;;;;4.50;1.40;;;;;;;23.67;24.64;95550.16;5113865;28;20162;-64